Fairfield, WA (99012)

2:54 AM PST on February 12, 2016 (GMT -0800)
CO-AG Grain Elevator | | Change Station
CLOSE
Current Station
Personal Weather Station
Location: Fairfield, WA
Elevation: 2556 ft
Nearby Weather Stations

Elev 2556 ft 47.38 °N, 117.17 °W | Updated 3 minutes ago

Overcast
Overcast
38.7 °F
Feels Like 31 °F
N
11.4
Wind Variable Wind from NE

Today
High -- | Low -- °F
--% Chance of Precip.
Yesterday
High -- | Low -- °F
Precip. -- in
Pressure 30.21 in
Visibility 4.0 miles
Clouds Few 600 ft
Mostly Cloudy 4200 ft
Overcast 4900 ft
Windchill 31 °F
Dew Point 37 °F
Humidity 93%
Rainfall 0.00 in
Snow Depth Not available.
6:59 AM 5:07 PM
Waxing Crescent, 19% visible
SPECI KSFF 121035Z AUTO 00000KT 4SM BR FEW006 BKN042 OVC049 05/04 A3021 RMK AO2 T00500039
Pressure 30.21 in
Visibility 4.0 miles
Clouds Few 600 ft
Mostly Cloudy 4200 ft
Overcast 4900 ft
Windchill 31 °F
Dew Point 37 °F
Humidity 93%
Rainfall 0.00 in
Snow Depth Not available.
6:59 AM 5:07 PM
Waxing Crescent, 19% visible
SPECI KSFF 121035Z AUTO 00000KT 4SM BR FEW006 BKN042 OVC049 05/04 A3021 RMK AO2 T00500039

10-Day Weather Forecast

Almanac

Astronomy

Feb. 12, 2016 Rise Set
Actual Time
Civil Twilight
Nautical Twilight
Astronomical Twilight
Moon
Length of Visible Light
Length of Day
Tomorrow will be .
, % of the Moon is Illuminated

Today's Extremes

State Highs State Lows

Community

WunderPhotos

Upload Photos

1,892,289 photos uploaded!

WunderBlog® & News

Nearby

Air Quality

  Air Quality AQ Index Pollutant
Not available.

Snow Depth

Station Depth Elevation

Earthquake Activity

City Distance Mag. Time & Date
Minimum magnitude displayed is 2.5.

Coastal Water Temperatures

Place Temperature

Stations

Nearby Weather Stations

Station Location Temp. Windchill Dew Point Humidity Wind Precip. Elev Updated Type
                   

Watches & Warnings

There are currently no watches in effect.